sensor_id;sensor_type;location;lat;lon;timestamp;P1;durP1;ratioP1;P2;durP2;ratioP2
69527;SDS011;57136;51.986;4.468;2023-02-28T00:01:09;7.00;;;3.55;;
69527;SDS011;57136;51.986;4.468;2023-02-28T00:03:34;8.75;;;3.95;;
69527;SDS011;57136;51.986;4.468;2023-02-28T00:06:01;7.63;;;3.63;;
69527;SDS011;57136;51.986;4.468;2023-02-28T00:08:28;7.65;;;3.75;;
69527;SDS011;57136;51.986;4.468;2023-02-28T00:10:53;9.88;;;3.83;;
69527;SDS011;57136;51.986;4.468;2023-02-28T00:13:18;6.82;;;4.05;;
69527;SDS011;57136;51.986;4.468;2023-02-28T00:15:44;9.68;;;4.97;;
69527;SDS011;57136;51.986;4.468;2023-02-28T00:18:10;13.40;;;5.15;;
69527;SDS011;57136;51.986;4.468;2023-02-28T00:20:36;10.80;;;5.07;;
69527;SDS011;57136;51.986;4.468;2023-02-28T00:23:02;9.63;;;5.00;;
69527;SDS011;57136;51.986;4.468;2023-02-28T00:25:27;11.10;;;5.07;;
69527;SDS011;57136;51.986;4.468;2023-02-28T00:27:53;10.80;;;4.90;;
69527;SDS011;57136;51.986;4.468;2023-02-28T00:30:19;9.25;;;3.65;;
69527;SDS011;57136;51.986;4.468;2023-02-28T00:32:46;8.00;;;3.55;;
69527;SDS011;57136;51.986;4.468;2023-02-28T00:35:12;10.30;;;3.92;;
69527;SDS011;57136;51.986;4.468;2023-02-28T00:37:37;7.18;;;3.38;;
69527;SDS011;57136;51.986;4.468;2023-02-28T00:40:03;8.27;;;3.63;;
69527;SDS011;57136;51.986;4.468;2023-02-28T00:42:30;14.65;;;4.53;;
69527;SDS011;57136;51.986;4.468;2023-02-28T00:44:56;6.32;;;3.65;;
69527;SDS011;57136;51.986;4.468;2023-02-28T00:47:21;8.90;;;3.55;;
69527;SDS011;57136;51.986;4.468;2023-02-28T00:49:47;9.07;;;3.42;;
69527;SDS011;57136;51.986;4.468;2023-02-28T00:52:12;6.00;;;2.83;;
69527;SDS011;57136;51.986;4.468;2023-02-28T00:54:37;6.07;;;3.75;;
69527;SDS011;57136;51.986;4.468;2023-02-28T00:57:03;5.30;;;2.55;;
69527;SDS011;57136;51.986;4.468;2023-02-28T00:59:28;7.45;;;2.95;;
69527;SDS011;57136;51.986;4.468;2023-02-28T01:01:53;7.70;;;2.40;;
69527;SDS011;57136;51.986;4.468;2023-02-28T01:04:19;5.30;;;2.45;;
69527;SDS011;57136;51.986;4.468;2023-02-28T01:06:44;6.10;;;2.38;;
69527;SDS011;57136;51.986;4.468;2023-02-28T01:09:10;4.80;;;2.15;;
69527;SDS011;57136;51.986;4.468;2023-02-28T01:11:35;3.92;;;2.22;;
69527;SDS011;57136;51.986;4.468;2023-02-28T01:14:01;5.65;;;2.85;;
69527;SDS011;57136;51.986;4.468;2023-02-28T01:16:28;6.57;;;2.40;;
69527;SDS011;57136;51.986;4.468;2023-02-28T01:18:54;4.32;;;2.30;;
69527;SDS011;57136;51.986;4.468;2023-02-28T01:21:20;4.75;;;2.03;;
69527;SDS011;57136;51.986;4.468;2023-02-28T01:23:46;7.22;;;2.40;;
69527;SDS011;57136;51.986;4.468;2023-02-28T01:26:18;5.32;;;2.65;;
69527;SDS011;57136;51.986;4.468;2023-02-28T01:28:46;4.32;;;2.15;;
69527;SDS011;57136;51.986;4.468;2023-02-28T01:31:12;5.35;;;2.47;;
69527;SDS011;57136;51.986;4.468;2023-02-28T01:33:37;4.90;;;2.20;;
69527;SDS011;57136;51.986;4.468;2023-02-28T01:36:08;5.10;;;2.33;;
69527;SDS011;57136;51.986;4.468;2023-02-28T01:38:35;7.30;;;2.83;;
69527;SDS011;57136;51.986;4.468;2023-02-28T01:41:01;8.52;;;2.50;;
69527;SDS011;57136;51.986;4.468;2023-02-28T01:43:27;4.65;;;2.38;;
69527;SDS011;57136;51.986;4.468;2023-02-28T01:45:55;4.72;;;2.17;;
69527;SDS011;57136;51.986;4.468;2023-02-28T01:48:26;5.80;;;2.63;;
69527;SDS011;57136;51.986;4.468;2023-02-28T01:50:56;5.50;;;2.23;;
69527;SDS011;57136;51.986;4.468;2023-02-28T01:53:30;4.07;;;2.33;;
69527;SDS011;57136;51.986;4.468;2023-02-28T01:55:58;6.15;;;2.25;;
69527;SDS011;57136;51.986;4.468;2023-02-28T01:58:24;6.45;;;2.97;;
69527;SDS011;57136;51.986;4.468;2023-02-28T02:00:50;6.38;;;2.53;;
69527;SDS011;57136;51.986;4.468;2023-02-28T02:03:16;4.35;;;2.40;;
69527;SDS011;57136;51.986;4.468;2023-02-28T02:05:44;5.35;;;2.72;;
69527;SDS011;57136;51.986;4.468;2023-02-28T02:08:15;6.20;;;2.95;;
69527;SDS011;57136;51.986;4.468;2023-02-28T02:10:44;5.20;;;2.65;;
69527;SDS011;57136;51.986;4.468;2023-02-28T02:22:02;9.93;;;4.72;;
69527;SDS011;57136;51.986;4.468;2023-02-28T02:24:58;7.88;;;4.15;;
69527;SDS011;57136;51.986;4.468;2023-02-28T02:36:33;6.80;;;3.78;;
69527;SDS011;57136;51.986;4.468;2023-02-28T02:41:40;7.13;;;3.65;;
69527;SDS011;57136;51.986;4.468;2023-02-28T02:44:20;7.53;;;4.28;;
69527;SDS011;57136;51.986;4.468;2023-02-28T02:46:58;9.48;;;4.82;;
69527;SDS011;57136;51.986;4.468;2023-02-28T02:49:29;7.57;;;4.15;;
69527;SDS011;57136;51.986;4.468;2023-02-28T02:51:57;10.98;;;4.70;;
69527;SDS011;57136;51.986;4.468;2023-02-28T02:54:29;15.68;;;5.43;;
69527;SDS011;57136;51.986;4.468;2023-02-28T02:56:59;7.75;;;4.28;;
69527;SDS011;57136;51.986;4.468;2023-02-28T02:59:29;9.80;;;4.13;;
69527;SDS011;57136;51.986;4.468;2023-02-28T03:01:56;8.35;;;4.18;;
69527;SDS011;57136;51.986;4.468;2023-02-28T03:04:24;8.95;;;4.60;;
69527;SDS011;57136;51.986;4.468;2023-02-28T03:06:55;7.80;;;4.28;;
69527;SDS011;57136;51.986;4.468;2023-02-28T03:09:23;7.60;;;4.13;;
69527;SDS011;57136;51.986;4.468;2023-02-28T03:11:51;7.10;;;4.20;;
69527;SDS011;57136;51.986;4.468;2023-02-28T03:20:01;8.65;;;4.28;;
69527;SDS011;57136;51.986;4.468;2023-02-28T03:25:07;10.95;;;5.07;;
69527;SDS011;57136;51.986;4.468;2023-02-28T03:27:42;10.73;;;5.40;;
69527;SDS011;57136;51.986;4.468;2023-02-28T03:30:25;9.27;;;4.80;;
69527;SDS011;57136;51.986;4.468;2023-02-28T03:32:59;10.50;;;5.20;;
69527;SDS011;57136;51.986;4.468;2023-02-28T03:35:59;11.43;;;5.13;;
69527;SDS011;57136;51.986;4.468;2023-02-28T03:38:31;10.93;;;5.35;;
69527;SDS011;57136;51.986;4.468;2023-02-28T03:41:05;8.98;;;4.90;;
69527;SDS011;57136;51.986;4.468;2023-02-28T03:43:41;9.75;;;4.93;;
69527;SDS011;57136;51.986;4.468;2023-02-28T03:46:12;6.03;;;4.60;;
69527;SDS011;57136;51.986;4.468;2023-02-28T03:48:43;10.93;;;5.18;;
69527;SDS011;57136;51.986;4.468;2023-02-28T03:51:15;7.97;;;4.88;;
69527;SDS011;57136;51.986;4.468;2023-02-28T03:53:53;6.80;;;4.50;;
69527;SDS011;57136;51.986;4.468;2023-02-28T03:56:25;6.97;;;4.00;;
69527;SDS011;57136;51.986;4.468;2023-02-28T03:59:04;7.18;;;4.32;;
69527;SDS011;57136;51.986;4.468;2023-02-28T04:01:35;11.15;;;5.07;;
69527;SDS011;57136;51.986;4.468;2023-02-28T04:04:06;12.80;;;5.20;;
69527;SDS011;57136;51.986;4.468;2023-02-28T04:06:32;14.20;;;5.75;;
69527;SDS011;57136;51.986;4.468;2023-02-28T04:08:58;8.70;;;5.32;;
69527;SDS011;57136;51.986;4.468;2023-02-28T04:11:33;8.10;;;5.63;;
69527;SDS011;57136;51.986;4.468;2023-02-28T04:14:02;7.95;;;5.45;;
69527;SDS011;57136;51.986;4.468;2023-02-28T04:16:29;8.65;;;5.60;;
69527;SDS011;57136;51.986;4.468;2023-02-28T04:18:55;13.18;;;5.70;;
69527;SDS011;57136;51.986;4.468;2023-02-28T04:21:27;10.15;;;6.20;;
69527;SDS011;57136;51.986;4.468;2023-02-28T04:23:56;11.15;;;5.82;;
69527;SDS011;57136;51.986;4.468;2023-02-28T04:26:25;9.05;;;5.57;;
69527;SDS011;57136;51.986;4.468;2023-02-28T04:29:01;8.57;;;5.43;;
69527;SDS011;57136;51.986;4.468;2023-02-28T04:31:30;10.60;;;5.35;;
69527;SDS011;57136;51.986;4.468;2023-02-28T04:33:56;9.40;;;5.88;;
69527;SDS011;57136;51.986;4.468;2023-02-28T04:36:22;11.73;;;5.25;;
69527;SDS011;57136;51.986;4.468;2023-02-28T04:38:48;8.30;;;5.20;;
69527;SDS011;57136;51.986;4.468;2023-02-28T04:41:13;7.07;;;5.65;;
69527;SDS011;57136;51.986;4.468;2023-02-28T04:43:42;7.40;;;4.80;;
69527;SDS011;57136;51.986;4.468;2023-02-28T04:46:08;6.97;;;4.68;;
69527;SDS011;57136;51.986;4.468;2023-02-28T04:48:35;11.60;;;5.40;;
69527;SDS011;57136;51.986;4.468;2023-02-28T04:51:02;8.48;;;4.95;;
69527;SDS011;57136;51.986;4.468;2023-02-28T04:53:28;8.50;;;5.13;;
69527;SDS011;57136;51.986;4.468;2023-02-28T04:55:54;10.20;;;5.18;;
69527;SDS011;57136;51.986;4.468;2023-02-28T04:58:20;11.20;;;5.10;;
69527;SDS011;57136;51.986;4.468;2023-02-28T05:00:48;8.45;;;4.97;;
69527;SDS011;57136;51.986;4.468;2023-02-28T05:03:13;8.77;;;5.05;;
69527;SDS011;57136;51.986;4.468;2023-02-28T05:05:38;8.45;;;5.03;;
69527;SDS011;57136;51.986;4.468;2023-02-28T05:08:04;9.13;;;5.13;;
69527;SDS011;57136;51.986;4.468;2023-02-28T05:10:30;8.75;;;4.65;;
69527;SDS011;57136;51.986;4.468;2023-02-28T05:12:56;12.38;;;5.50;;
69527;SDS011;57136;51.986;4.468;2023-02-28T05:15:21;13.13;;;5.55;;
69527;SDS011;57136;51.986;4.468;2023-02-28T05:17:46;10.90;;;5.88;;
69527;SDS011;57136;51.986;4.468;2023-02-28T05:20:12;11.88;;;5.40;;
69527;SDS011;57136;51.986;4.468;2023-02-28T05:22:38;16.55;;;5.82;;
69527;SDS011;57136;51.986;4.468;2023-02-28T05:25:04;14.02;;;5.70;;
69527;SDS011;57136;51.986;4.468;2023-02-28T05:27:30;9.82;;;5.47;;
69527;SDS011;57136;51.986;4.468;2023-02-28T05:29:56;9.82;;;5.00;;
69527;SDS011;57136;51.986;4.468;2023-02-28T05:32:22;8.43;;;5.45;;
69527;SDS011;57136;51.986;4.468;2023-02-28T05:34:47;10.00;;;5.97;;
69527;SDS011;57136;51.986;4.468;2023-02-28T05:37:13;8.60;;;5.47;;
69527;SDS011;57136;51.986;4.468;2023-02-28T05:39:40;9.52;;;6.03;;
69527;SDS011;57136;51.986;4.468;2023-02-28T05:42:06;10.55;;;5.78;;
69527;SDS011;57136;51.986;4.468;2023-02-28T05:44:31;13.27;;;6.00;;
69527;SDS011;57136;51.986;4.468;2023-02-28T05:46:57;9.68;;;5.95;;
69527;SDS011;57136;51.986;4.468;2023-02-28T05:49:22;10.05;;;6.05;;
69527;SDS011;57136;51.986;4.468;2023-02-28T05:51:47;8.95;;;5.78;;
69527;SDS011;57136;51.986;4.468;2023-02-28T05:54:13;11.40;;;6.28;;
69527;SDS011;57136;51.986;4.468;2023-02-28T05:56:38;9.85;;;5.88;;
69527;SDS011;57136;51.986;4.468;2023-02-28T05:59:05;10.35;;;5.85;;
69527;SDS011;57136;51.986;4.468;2023-02-28T06:01:35;9.52;;;5.78;;
69527;SDS011;57136;51.986;4.468;2023-02-28T06:04:02;11.30;;;6.00;;
69527;SDS011;57136;51.986;4.468;2023-02-28T06:06:29;9.90;;;5.88;;
69527;SDS011;57136;51.986;4.468;2023-02-28T06:08:55;10.00;;;5.97;;
69527;SDS011;57136;51.986;4.468;2023-02-28T06:11:21;11.23;;;6.43;;
69527;SDS011;57136;51.986;4.468;2023-02-28T06:13:47;12.18;;;6.15;;
69527;SDS011;57136;51.986;4.468;2023-02-28T06:16:12;9.77;;;6.47;;
69527;SDS011;57136;51.986;4.468;2023-02-28T06:18:38;10.88;;;6.35;;
69527;SDS011;57136;51.986;4.468;2023-02-28T06:21:03;10.73;;;5.95;;
69527;SDS011;57136;51.986;4.468;2023-02-28T06:23:29;8.38;;;5.50;;
69527;SDS011;57136;51.986;4.468;2023-02-28T06:25:54;8.80;;;6.22;;
69527;SDS011;57136;51.986;4.468;2023-02-28T06:28:23;8.18;;;6.00;;
69527;SDS011;57136;51.986;4.468;2023-02-28T06:30:49;7.90;;;5.25;;
69527;SDS011;57136;51.986;4.468;2023-02-28T06:33:14;10.38;;;4.88;;
69527;SDS011;57136;51.986;4.468;2023-02-28T06:35:39;10.73;;;5.90;;
69527;SDS011;57136;51.986;4.468;2023-02-28T06:38:08;5.90;;;4.32;;
69527;SDS011;57136;51.986;4.468;2023-02-28T06:40:33;8.50;;;4.60;;
69527;SDS011;57136;51.986;4.468;2023-02-28T06:43:01;8.68;;;5.00;;
69527;SDS011;57136;51.986;4.468;2023-02-28T06:45:26;8.02;;;4.32;;
69527;SDS011;57136;51.986;4.468;2023-02-28T06:47:51;6.65;;;4.05;;
69527;SDS011;57136;51.986;4.468;2023-02-28T06:50:18;9.75;;;3.97;;
69527;SDS011;57136;51.986;4.468;2023-02-28T06:52:45;7.40;;;4.28;;
69527;SDS011;57136;51.986;4.468;2023-02-28T06:55:11;5.97;;;3.92;;
69527;SDS011;57136;51.986;4.468;2023-02-28T06:57:37;6.72;;;3.50;;
69527;SDS011;57136;51.986;4.468;2023-02-28T07:00:05;5.85;;;3.90;;
69527;SDS011;57136;51.986;4.468;2023-02-28T07:02:34;5.47;;;3.47;;
69527;SDS011;57136;51.986;4.468;2023-02-28T07:05:01;6.28;;;3.78;;
69527;SDS011;57136;51.986;4.468;2023-02-28T07:07:26;7.28;;;3.90;;
69527;SDS011;57136;51.986;4.468;2023-02-28T07:09:51;10.02;;;3.80;;
69527;SDS011;57136;51.986;4.468;2023-02-28T07:12:17;9.00;;;4.20;;
69527;SDS011;57136;51.986;4.468;2023-02-28T07:14:42;7.68;;;4.03;;
69527;SDS011;57136;51.986;4.468;2023-02-28T07:17:08;6.40;;;4.07;;
69527;SDS011;57136;51.986;4.468;2023-02-28T07:19:35;8.70;;;4.20;;
69527;SDS011;57136;51.986;4.468;2023-02-28T07:22:01;9.43;;;4.63;;
69527;SDS011;57136;51.986;4.468;2023-02-28T07:24:27;6.72;;;4.55;;
69527;SDS011;57136;51.986;4.468;2023-02-28T07:26:54;5.88;;;4.30;;
69527;SDS011;57136;51.986;4.468;2023-02-28T07:29:19;9.65;;;5.05;;
69527;SDS011;57136;51.986;4.468;2023-02-28T07:31:45;5.93;;;4.50;;
69527;SDS011;57136;51.986;4.468;2023-02-28T07:34:11;6.53;;;3.85;;
69527;SDS011;57136;51.986;4.468;2023-02-28T07:36:37;10.07;;;4.60;;
69527;SDS011;57136;51.986;4.468;2023-02-28T07:39:03;6.30;;;3.92;;
69527;SDS011;57136;51.986;4.468;2023-02-28T07:41:29;8.77;;;4.57;;
69527;SDS011;57136;51.986;4.468;2023-02-28T07:43:58;8.77;;;4.55;;
69527;SDS011;57136;51.986;4.468;2023-02-28T07:46:24;5.88;;;4.15;;
69527;SDS011;57136;51.986;4.468;2023-02-28T07:48:51;7.32;;;4.55;;
69527;SDS011;57136;51.986;4.468;2023-02-28T07:51:17;7.20;;;4.50;;
69527;SDS011;57136;51.986;4.468;2023-02-28T07:53:43;8.68;;;5.00;;
69527;SDS011;57136;51.986;4.468;2023-02-28T07:56:09;9.07;;;4.53;;
69527;SDS011;57136;51.986;4.468;2023-02-28T07:58:35;8.10;;;4.40;;
69527;SDS011;57136;51.986;4.468;2023-02-28T08:01:07;10.85;;;5.55;;
69527;SDS011;57136;51.986;4.468;2023-02-28T08:03:34;7.80;;;4.93;;
69527;SDS011;57136;51.986;4.468;2023-02-28T08:06:00;6.70;;;4.88;;
69527;SDS011;57136;51.986;4.468;2023-02-28T08:08:27;7.70;;;4.68;;
69527;SDS011;57136;51.986;4.468;2023-02-28T08:10:57;8.98;;;5.68;;
69527;SDS011;57136;51.986;4.468;2023-02-28T08:13:23;9.45;;;5.40;;
69527;SDS011;57136;51.986;4.468;2023-02-28T08:15:49;9.52;;;6.38;;
69527;SDS011;57136;51.986;4.468;2023-02-28T08:18:14;9.48;;;6.05;;
69527;SDS011;57136;51.986;4.468;2023-02-28T08:20:40;8.07;;;5.93;;
69527;SDS011;57136;51.986;4.468;2023-02-28T08:23:05;9.10;;;6.15;;
69527;SDS011;57136;51.986;4.468;2023-02-28T08:25:30;10.75;;;6.30;;
69527;SDS011;57136;51.986;4.468;2023-02-28T08:27:56;8.80;;;5.93;;
69527;SDS011;57136;51.986;4.468;2023-02-28T08:30:21;9.18;;;5.80;;
69527;SDS011;57136;51.986;4.468;2023-02-28T08:32:46;8.93;;;5.50;;
69527;SDS011;57136;51.986;4.468;2023-02-28T08:35:12;8.25;;;5.68;;
69527;SDS011;57136;51.986;4.468;2023-02-28T08:37:37;8.88;;;5.80;;
69527;SDS011;57136;51.986;4.468;2023-02-28T08:40:05;7.93;;;5.00;;
69527;SDS011;57136;51.986;4.468;2023-02-28T08:42:31;13.00;;;6.10;;
69527;SDS011;57136;51.986;4.468;2023-02-28T08:44:57;9.05;;;6.38;;
69527;SDS011;57136;51.986;4.468;2023-02-28T08:47:22;10.02;;;5.90;;
69527;SDS011;57136;51.986;4.468;2023-02-28T08:49:48;7.93;;;5.65;;
69527;SDS011;57136;51.986;4.468;2023-02-28T08:52:13;10.13;;;6.53;;
69527;SDS011;57136;51.986;4.468;2023-02-28T08:54:38;11.00;;;6.05;;
69527;SDS011;57136;51.986;4.468;2023-02-28T08:57:05;10.70;;;5.75;;
69527;SDS011;57136;51.986;4.468;2023-02-28T08:59:31;9.25;;;6.63;;
69527;SDS011;57136;51.986;4.468;2023-02-28T09:01:57;8.27;;;6.32;;
69527;SDS011;57136;51.986;4.468;2023-02-28T09:04:22;9.25;;;6.40;;
69527;SDS011;57136;51.986;4.468;2023-02-28T09:06:48;9.93;;;6.38;;
69527;SDS011;57136;51.986;4.468;2023-02-28T09:09:13;10.27;;;6.28;;
69527;SDS011;57136;51.986;4.468;2023-02-28T09:11:39;8.60;;;6.40;;
69527;SDS011;57136;51.986;4.468;2023-02-28T09:14:05;10.20;;;6.13;;
69527;SDS011;57136;51.986;4.468;2023-02-28T09:16:33;9.27;;;6.30;;
69527;SDS011;57136;51.986;4.468;2023-02-28T09:18:59;11.40;;;6.53;;
69527;SDS011;57136;51.986;4.468;2023-02-28T09:21:25;8.98;;;6.07;;
69527;SDS011;57136;51.986;4.468;2023-02-28T09:23:50;11.43;;;6.72;;
69527;SDS011;57136;51.986;4.468;2023-02-28T09:26:19;8.75;;;5.90;;
69527;SDS011;57136;51.986;4.468;2023-02-28T09:28:47;11.57;;;6.63;;
69527;SDS011;57136;51.986;4.468;2023-02-28T09:31:13;13.07;;;7.00;;
69527;SDS011;57136;51.986;4.468;2023-02-28T09:33:46;11.07;;;7.00;;
69527;SDS011;57136;51.986;4.468;2023-02-28T09:36:15;11.07;;;6.43;;
69527;SDS011;57136;51.986;4.468;2023-02-28T09:38:41;11.07;;;6.65;;
69527;SDS011;57136;51.986;4.468;2023-02-28T09:41:21;10.63;;;7.05;;
69527;SDS011;57136;51.986;4.468;2023-02-28T09:43:58;11.43;;;6.63;;
69527;SDS011;57136;51.986;4.468;2023-02-28T09:46:35;8.82;;;6.00;;
69527;SDS011;57136;51.986;4.468;2023-02-28T09:49:12;8.55;;;5.40;;
69527;SDS011;57136;51.986;4.468;2023-02-28T09:51:55;11.95;;;6.28;;
69527;SDS011;57136;51.986;4.468;2023-02-28T10:04:57;8.50;;;5.63;;
69527;SDS011;57136;51.986;4.468;2023-02-28T10:09:56;6.45;;;4.57;;
69527;SDS011;57136;51.986;4.468;2023-02-28T10:12:25;7.80;;;4.78;;
69527;SDS011;57136;51.986;4.468;2023-02-28T10:14:53;11.68;;;5.53;;
69527;SDS011;57136;51.986;4.468;2023-02-28T10:17:21;9.07;;;5.10;;
69527;SDS011;57136;51.986;4.468;2023-02-28T10:20:04;7.75;;;5.03;;
69527;SDS011;57136;51.986;4.468;2023-02-28T10:23:00;9.82;;;6.28;;
69527;SDS011;57136;51.986;4.468;2023-02-28T10:25:32;5.68;;;4.28;;
69527;SDS011;57136;51.986;4.468;2023-02-28T10:28:01;6.60;;;4.13;;
69527;SDS011;57136;51.986;4.468;2023-02-28T10:30:34;6.80;;;4.05;;
69527;SDS011;57136;51.986;4.468;2023-02-28T10:33:02;4.95;;;3.90;;
69527;SDS011;57136;51.986;4.468;2023-02-28T10:35:27;4.25;;;3.30;;
69527;SDS011;57136;51.986;4.468;2023-02-28T10:37:57;4.47;;;3.08;;
69527;SDS011;57136;51.986;4.468;2023-02-28T10:42:59;4.45;;;3.40;;
69527;SDS011;57136;51.986;4.468;2023-02-28T10:45:25;5.28;;;3.33;;
69527;SDS011;57136;51.986;4.468;2023-02-28T10:48:01;5.22;;;3.70;;
69527;SDS011;57136;51.986;4.468;2023-02-28T10:58:48;4.97;;;3.42;;
69527;SDS011;57136;51.986;4.468;2023-02-28T11:01:21;4.15;;;3.45;;
69527;SDS011;57136;51.986;4.468;2023-02-28T11:06:47;5.82;;;3.83;;
69527;SDS011;57136;51.986;4.468;2023-02-28T11:09:34;6.82;;;3.50;;
69527;SDS011;57136;51.986;4.468;2023-02-28T11:12:02;4.97;;;3.47;;
69527;SDS011;57136;51.986;4.468;2023-02-28T11:14:32;6.30;;;3.70;;
69527;SDS011;57136;51.986;4.468;2023-02-28T11:20:00;3.95;;;3.17;;
69527;SDS011;57136;51.986;4.468;2023-02-28T11:22:29;4.90;;;3.55;;
69527;SDS011;57136;51.986;4.468;2023-02-28T11:25:02;5.30;;;2.78;;
69527;SDS011;57136;51.986;4.468;2023-02-28T11:30:02;4.38;;;3.67;;
69527;SDS011;57136;51.986;4.468;2023-02-28T11:32:29;3.33;;;2.78;;
69527;SDS011;57136;51.986;4.468;2023-02-28T11:37:37;3.80;;;2.85;;
69527;SDS011;57136;51.986;4.468;2023-02-28T11:40:18;2.95;;;2.65;;
69527;SDS011;57136;51.986;4.468;2023-02-28T11:45:36;2.60;;;2.30;;
69527;SDS011;57136;51.986;4.468;2023-02-28T11:51:20;2.70;;;2.22;;
69527;SDS011;57136;51.986;4.468;2023-02-28T11:56:53;3.15;;;2.55;;
69527;SDS011;57136;51.986;4.468;2023-02-28T12:05:08;3.38;;;2.67;;
69527;SDS011;57136;51.986;4.468;2023-02-28T12:15:48;2.63;;;2.40;;
69527;SDS011;57136;51.986;4.468;2023-02-28T12:21:06;2.88;;;2.58;;
69527;SDS011;57136;51.986;4.468;2023-02-28T12:28:51;3.78;;;2.67;;
69527;SDS011;57136;51.986;4.468;2023-02-28T12:31:27;3.17;;;2.72;;
69527;SDS011;57136;51.986;4.468;2023-02-28T12:33:58;3.10;;;2.38;;
69527;SDS011;57136;51.986;4.468;2023-02-28T12:36:28;2.78;;;2.45;;
69527;SDS011;57136;51.986;4.468;2023-02-28T12:39:06;2.83;;;2.53;;
69527;SDS011;57136;51.986;4.468;2023-02-28T12:46:56;3.30;;;2.75;;
69527;SDS011;57136;51.986;4.468;2023-02-28T12:52:07;3.60;;;2.70;;
69527;SDS011;57136;51.986;4.468;2023-02-28T12:54:39;4.60;;;2.88;;
69527;SDS011;57136;51.986;4.468;2023-02-28T12:57:13;3.15;;;2.20;;
69527;SDS011;57136;51.986;4.468;2023-02-28T13:10:48;3.10;;;2.30;;
69527;SDS011;57136;51.986;4.468;2023-02-28T13:13:20;5.10;;;2.60;;
69527;SDS011;57136;51.986;4.468;2023-02-28T13:16:05;3.13;;;2.30;;
69527;SDS011;57136;51.986;4.468;2023-02-28T13:18:41;5.28;;;2.60;;
69527;SDS011;57136;51.986;4.468;2023-02-28T13:21:09;4.22;;;2.50;;
69527;SDS011;57136;51.986;4.468;2023-02-28T13:26:20;4.97;;;2.60;;
69527;SDS011;57136;51.986;4.468;2023-02-28T13:31:25;5.22;;;3.30;;
69527;SDS011;57136;51.986;4.468;2023-02-28T13:36:23;4.53;;;2.80;;
69527;SDS011;57136;51.986;4.468;2023-02-28T13:38:54;3.90;;;3.13;;
69527;SDS011;57136;51.986;4.468;2023-02-28T13:44:04;5.60;;;5.10;;
69527;SDS011;57136;51.986;4.468;2023-02-28T13:46:30;4.13;;;2.88;;
69527;SDS011;57136;51.986;4.468;2023-02-28T13:49:17;5.43;;;4.85;;
69527;SDS011;57136;51.986;4.468;2023-02-28T13:51:47;5.32;;;4.53;;
69527;SDS011;57136;51.986;4.468;2023-02-28T13:59:42;4.05;;;2.75;;
69527;SDS011;57136;51.986;4.468;2023-02-28T14:02:44;6.97;;;4.93;;
69527;SDS011;57136;51.986;4.468;2023-02-28T14:05:15;3.60;;;2.72;;
69527;SDS011;57136;51.986;4.468;2023-02-28T14:07:45;4.45;;;2.67;;
69527;SDS011;57136;51.986;4.468;2023-02-28T14:10:47;3.25;;;2.78;;
69527;SDS011;57136;51.986;4.468;2023-02-28T14:16:09;6.88;;;4.05;;
69527;SDS011;57136;51.986;4.468;2023-02-28T14:18:39;4.22;;;3.47;;
69527;SDS011;57136;51.986;4.468;2023-02-28T14:21:11;5.05;;;3.55;;
69527;SDS011;57136;51.986;4.468;2023-02-28T14:23:47;3.28;;;2.88;;
69527;SDS011;57136;51.986;4.468;2023-02-28T14:35:18;5.18;;;3.38;;
69527;SDS011;57136;51.986;4.468;2023-02-28T14:37:51;4.38;;;3.20;;
69527;SDS011;57136;51.986;4.468;2023-02-28T14:42:59;4.35;;;3.95;;
69527;SDS011;57136;51.986;4.468;2023-02-28T14:45:30;5.45;;;3.97;;
69527;SDS011;57136;51.986;4.468;2023-02-28T14:47:59;4.88;;;3.67;;
69527;SDS011;57136;51.986;4.468;2023-02-28T14:50:28;3.97;;;3.38;;
69527;SDS011;57136;51.986;4.468;2023-02-28T14:52:56;4.35;;;2.75;;
69527;SDS011;57136;51.986;4.468;2023-02-28T14:55:26;3.60;;;2.70;;
69527;SDS011;57136;51.986;4.468;2023-02-28T14:57:58;5.80;;;3.40;;
69527;SDS011;57136;51.986;4.468;2023-02-28T15:00:31;4.53;;;2.92;;
69527;SDS011;57136;51.986;4.468;2023-02-28T15:02:59;3.97;;;2.50;;
69527;SDS011;57136;51.986;4.468;2023-02-28T15:08:00;3.35;;;2.78;;
69527;SDS011;57136;51.986;4.468;2023-02-28T15:10:35;4.80;;;2.80;;
69527;SDS011;57136;51.986;4.468;2023-02-28T15:13:08;2.78;;;2.53;;
69527;SDS011;57136;51.986;4.468;2023-02-28T15:15:57;2.47;;;2.20;;
69527;SDS011;57136;51.986;4.468;2023-02-28T15:21:15;4.80;;;2.83;;
69527;SDS011;57136;51.986;4.468;2023-02-28T15:23:54;4.03;;;2.42;;
69527;SDS011;57136;51.986;4.468;2023-02-28T15:26:29;3.75;;;2.20;;
69527;SDS011;57136;51.986;4.468;2023-02-28T15:28:58;3.23;;;2.30;;
69527;SDS011;57136;51.986;4.468;2023-02-28T15:31:46;2.47;;;2.28;;
69527;SDS011;57136;51.986;4.468;2023-02-28T15:34:34;4.70;;;2.90;;
69527;SDS011;57136;51.986;4.468;2023-02-28T15:37:06;4.15;;;2.60;;
69527;SDS011;57136;51.986;4.468;2023-02-28T15:39:50;5.55;;;2.83;;
69527;SDS011;57136;51.986;4.468;2023-02-28T15:42:19;3.33;;;2.40;;
69527;SDS011;57136;51.986;4.468;2023-02-28T15:44:46;6.25;;;3.80;;
69527;SDS011;57136;51.986;4.468;2023-02-28T15:49:49;8.45;;;4.53;;
69527;SDS011;57136;51.986;4.468;2023-02-28T15:52:18;5.20;;;3.63;;
69527;SDS011;57136;51.986;4.468;2023-02-28T15:54:52;6.13;;;4.13;;
69527;SDS011;57136;51.986;4.468;2023-02-28T15:57:22;7.63;;;4.30;;
69527;SDS011;57136;51.986;4.468;2023-02-28T15:59:56;4.25;;;3.35;;
69527;SDS011;57136;51.986;4.468;2023-02-28T16:02:35;7.70;;;3.75;;
69527;SDS011;57136;51.986;4.468;2023-02-28T16:07:33;3.40;;;2.60;;
69527;SDS011;57136;51.986;4.468;2023-02-28T16:10:00;4.80;;;3.00;;
69527;SDS011;57136;51.986;4.468;2023-02-28T16:12:29;3.00;;;2.58;;
69527;SDS011;57136;51.986;4.468;2023-02-28T16:14:57;3.45;;;2.45;;
69527;SDS011;57136;51.986;4.468;2023-02-28T16:17:31;4.45;;;3.08;;
69527;SDS011;57136;51.986;4.468;2023-02-28T16:20:05;3.15;;;2.85;;
69527;SDS011;57136;51.986;4.468;2023-02-28T16:22:41;4.82;;;3.45;;
69527;SDS011;57136;51.986;4.468;2023-02-28T16:25:11;4.40;;;2.70;;
69527;SDS011;57136;51.986;4.468;2023-02-28T16:27:40;3.50;;;2.85;;
69527;SDS011;57136;51.986;4.468;2023-02-28T16:30:09;4.38;;;3.55;;
69527;SDS011;57136;51.986;4.468;2023-02-28T16:32:42;3.20;;;2.75;;
69527;SDS011;57136;51.986;4.468;2023-02-28T16:35:09;6.25;;;3.72;;
69527;SDS011;57136;51.986;4.468;2023-02-28T16:37:35;4.63;;;3.13;;
69527;SDS011;57136;51.986;4.468;2023-02-28T16:40:00;6.55;;;4.32;;
69527;SDS011;57136;51.986;4.468;2023-02-28T16:42:27;5.38;;;3.67;;
69527;SDS011;57136;51.986;4.468;2023-02-28T16:44:53;9.00;;;7.20;;
69527;SDS011;57136;51.986;4.468;2023-02-28T16:47:19;6.82;;;5.43;;
69527;SDS011;57136;51.986;4.468;2023-02-28T16:49:45;9.20;;;4.40;;
69527;SDS011;57136;51.986;4.468;2023-02-28T16:52:12;8.15;;;5.43;;
69527;SDS011;57136;51.986;4.468;2023-02-28T16:54:38;10.48;;;5.68;;
69527;SDS011;57136;51.986;4.468;2023-02-28T16:57:05;6.45;;;3.67;;
69527;SDS011;57136;51.986;4.468;2023-02-28T16:59:40;3.72;;;2.53;;
69527;SDS011;57136;51.986;4.468;2023-02-28T17:02:10;5.60;;;3.88;;
69527;SDS011;57136;51.986;4.468;2023-02-28T17:04:38;5.13;;;3.58;;
69527;SDS011;57136;51.986;4.468;2023-02-28T17:07:03;4.30;;;3.90;;
69527;SDS011;57136;51.986;4.468;2023-02-28T17:09:28;10.55;;;7.00;;
69527;SDS011;57136;51.986;4.468;2023-02-28T17:11:54;7.32;;;4.75;;
69527;SDS011;57136;51.986;4.468;2023-02-28T17:14:19;11.20;;;9.18;;
69527;SDS011;57136;51.986;4.468;2023-02-28T17:16:46;5.35;;;3.88;;
69527;SDS011;57136;51.986;4.468;2023-02-28T17:19:13;6.65;;;4.22;;
69527;SDS011;57136;51.986;4.468;2023-02-28T17:21:40;19.40;;;14.95;;
69527;SDS011;57136;51.986;4.468;2023-02-28T17:24:09;6.18;;;4.15;;
69527;SDS011;57136;51.986;4.468;2023-02-28T17:26:37;9.30;;;8.05;;
69527;SDS011;57136;51.986;4.468;2023-02-28T17:29:05;14.63;;;10.82;;
69527;SDS011;57136;51.986;4.468;2023-02-28T17:31:37;5.75;;;4.90;;